sensor_id;sensor_type;location;lat;lon;timestamp;temperature;humidity
1405;DHT22;697;51.114;6.542;2022-12-18T00:02:23;-1.10;90.90
1405;DHT22;697;51.114;6.542;2022-12-18T00:04:50;-1.10;90.90
1405;DHT22;697;51.114;6.542;2022-12-18T00:07:17;-1.10;91.00
1405;DHT22;697;51.114;6.542;2022-12-18T00:09:43;-1.20;91.00
1405;DHT22;697;51.114;6.542;2022-12-18T00:12:11;-1.20;91.00
1405;DHT22;697;51.114;6.542;2022-12-18T00:14:38;-1.20;91.00
1405;DHT22;697;51.114;6.542;2022-12-18T00:17:06;-1.30;91.00
1405;DHT22;697;51.114;6.542;2022-12-18T00:19:33;-1.30;91.10
1405;DHT22;697;51.114;6.542;2022-12-18T00:21:59;-1.30;91.00
1405;DHT22;697;51.114;6.542;2022-12-18T00:24:26;-1.30;90.90
1405;DHT22;697;51.114;6.542;2022-12-18T00:26:53;-1.30;91.00
1405;DHT22;697;51.114;6.542;2022-12-18T00:29:19;-1.30;91.10
1405;DHT22;697;51.114;6.542;2022-12-18T00:31:46;-1.30;91.00
1405;DHT22;697;51.114;6.542;2022-12-18T00:34:15;-1.30;91.30
1405;DHT22;697;51.114;6.542;2022-12-18T00:36:42;-1.30;91.00
1405;DHT22;697;51.114;6.542;2022-12-18T00:39:11;-1.30;91.00
1405;DHT22;697;51.114;6.542;2022-12-18T00:41:38;-1.30;91.00
1405;DHT22;697;51.114;6.542;2022-12-18T00:44:22;-1.40;91.00
1405;DHT22;697;51.114;6.542;2022-12-18T00:46:49;-1.40;91.10
1405;DHT22;697;51.114;6.542;2022-12-18T00:49:18;-1.40;91.20
1405;DHT22;697;51.114;6.542;2022-12-18T00:51:45;-1.40;91.20
1405;DHT22;697;51.114;6.542;2022-12-18T00:54:12;-1.30;91.20
1405;DHT22;697;51.114;6.542;2022-12-18T00:56:39;-1.40;91.10
1405;DHT22;697;51.114;6.542;2022-12-18T00:59:06;-1.40;91.20
1405;DHT22;697;51.114;6.542;2022-12-18T01:01:33;-1.40;91.10
1405;DHT22;697;51.114;6.542;2022-12-18T01:04:00;-1.40;91.20
1405;DHT22;697;51.114;6.542;2022-12-18T01:06:29;-1.40;91.20
1405;DHT22;697;51.114;6.542;2022-12-18T01:08:56;-1.40;91.20
1405;DHT22;697;51.114;6.542;2022-12-18T01:11:23;-1.40;91.10
1405;DHT22;697;51.114;6.542;2022-12-18T01:13:51;-1.40;91.10
1405;DHT22;697;51.114;6.542;2022-12-18T01:16:18;-1.40;91.20
1405;DHT22;697;51.114;6.542;2022-12-18T01:18:45;-1.40;91.20
1405;DHT22;697;51.114;6.542;2022-12-18T01:21:14;-1.50;91.20
1405;DHT22;697;51.114;6.542;2022-12-18T01:23:42;-1.40;91.40
1405;DHT22;697;51.114;6.542;2022-12-18T01:26:10;-1.50;91.40
1405;DHT22;697;51.114;6.542;2022-12-18T01:28:37;-1.50;91.30
1405;DHT22;697;51.114;6.542;2022-12-18T01:31:16;-1.50;91.30
1405;DHT22;697;51.114;6.542;2022-12-18T01:33:43;-1.50;91.30
1405;DHT22;697;51.114;6.542;2022-12-18T01:36:15;-1.50;91.30
1405;DHT22;697;51.114;6.542;2022-12-18T01:38:44;-1.60;91.30
1405;DHT22;697;51.114;6.542;2022-12-18T01:41:11;-1.60;91.40
1405;DHT22;697;51.114;6.542;2022-12-18T01:43:46;-1.70;91.40
1405;DHT22;697;51.114;6.542;2022-12-18T01:46:14;-1.60;91.50
1405;DHT22;697;51.114;6.542;2022-12-18T01:48:41;-1.60;91.50
1405;DHT22;697;51.114;6.542;2022-12-18T01:51:10;-1.60;91.40
1405;DHT22;697;51.114;6.542;2022-12-18T01:53:39;-1.60;91.40
1405;DHT22;697;51.114;6.542;2022-12-18T01:56:12;-1.60;91.50
1405;DHT22;697;51.114;6.542;2022-12-18T01:58:46;-1.60;91.40
1405;DHT22;697;51.114;6.542;2022-12-18T02:01:13;-1.60;91.40
1405;DHT22;697;51.114;6.542;2022-12-18T02:03:41;-1.60;91.30
1405;DHT22;697;51.114;6.542;2022-12-18T02:06:13;-1.70;91.40
1405;DHT22;697;51.114;6.542;2022-12-18T02:08:48;-1.60;91.50
1405;DHT22;697;51.114;6.542;2022-12-18T02:11:24;-1.70;91.40
1405;DHT22;697;51.114;6.542;2022-12-18T02:14:03;-1.70;91.50
1405;DHT22;697;51.114;6.542;2022-12-18T02:16:39;-1.70;91.50
1405;DHT22;697;51.114;6.542;2022-12-18T02:19:18;-1.70;91.50
1405;DHT22;697;51.114;6.542;2022-12-18T02:21:51;-1.70;91.60
1405;DHT22;697;51.114;6.542;2022-12-18T02:24:31;-1.70;91.70
1405;DHT22;697;51.114;6.542;2022-12-18T02:27:04;-1.70;91.70
1405;DHT22;697;51.114;6.542;2022-12-18T02:29:35;-1.70;91.70
1405;DHT22;697;51.114;6.542;2022-12-18T02:32:08;-1.70;91.60
1405;DHT22;697;51.114;6.542;2022-12-18T02:34:39;-1.60;91.60
1405;DHT22;697;51.114;6.542;2022-12-18T02:37:09;-1.60;91.50
1405;DHT22;697;51.114;6.542;2022-12-18T02:39:38;-1.60;91.50
1405;DHT22;697;51.114;6.542;2022-12-18T02:42:08;-1.60;91.40
1405;DHT22;697;51.114;6.542;2022-12-18T02:44:35;-1.60;91.50
1405;DHT22;697;51.114;6.542;2022-12-18T02:47:10;-1.70;91.30
1405;DHT22;697;51.114;6.542;2022-12-18T02:49:47;-1.70;91.40
1405;DHT22;697;51.114;6.542;2022-12-18T02:52:28;-1.60;91.40
1405;DHT22;697;51.114;6.542;2022-12-18T02:55:07;-1.70;91.40
1405;DHT22;697;51.114;6.542;2022-12-18T02:57:41;-1.70;91.40
1405;DHT22;697;51.114;6.542;2022-12-18T03:00:13;-1.70;91.30
1405;DHT22;697;51.114;6.542;2022-12-18T03:02:44;-1.70;91.40
1405;DHT22;697;51.114;6.542;2022-12-18T03:05:15;-1.70;91.40
1405;DHT22;697;51.114;6.542;2022-12-18T03:07:49;-1.80;91.40
1405;DHT22;697;51.114;6.542;2022-12-18T03:10:24;-1.80;91.40
1405;DHT22;697;51.114;6.542;2022-12-18T03:12:56;-1.80;91.30
1405;DHT22;697;51.114;6.542;2022-12-18T03:15:30;-1.80;91.40
1405;DHT22;697;51.114;6.542;2022-12-18T03:18:02;-1.80;91.50
1405;DHT22;697;51.114;6.542;2022-12-18T03:20:33;-1.80;91.50
1405;DHT22;697;51.114;6.542;2022-12-18T03:23:04;-1.80;91.60
1405;DHT22;697;51.114;6.542;2022-12-18T03:25:33;-1.80;91.60
1405;DHT22;697;51.114;6.542;2022-12-18T03:28:03;-1.70;91.70
1405;DHT22;697;51.114;6.542;2022-12-18T03:30:32;-1.70;91.60
1405;DHT22;697;51.114;6.542;2022-12-18T03:33:05;-1.70;91.50
1405;DHT22;697;51.114;6.542;2022-12-18T03:35:36;-1.60;91.40
1405;DHT22;697;51.114;6.542;2022-12-18T03:38:04;-1.70;91.20
1405;DHT22;697;51.114;6.542;2022-12-18T03:40:35;-1.70;91.30
1405;DHT22;697;51.114;6.542;2022-12-18T03:43:10;-1.60;91.40
1405;DHT22;697;51.114;6.542;2022-12-18T03:45:44;-1.70;91.20
1405;DHT22;697;51.114;6.542;2022-12-18T03:48:17;-1.70;91.10
1405;DHT22;697;51.114;6.542;2022-12-18T03:50:49;-1.70;91.20
1405;DHT22;697;51.114;6.542;2022-12-18T03:53:24;-1.70;91.30
1405;DHT22;697;51.114;6.542;2022-12-18T03:55:55;-1.70;91.30
1405;DHT22;697;51.114;6.542;2022-12-18T03:58:25;-1.70;91.20
1405;DHT22;697;51.114;6.542;2022-12-18T04:00:56;-1.70;91.20
1405;DHT22;697;51.114;6.542;2022-12-18T04:03:23;-1.70;91.20
1405;DHT22;697;51.114;6.542;2022-12-18T04:05:52;-1.70;91.20
1405;DHT22;697;51.114;6.542;2022-12-18T04:08:21;-1.60;91.30
1405;DHT22;697;51.114;6.542;2022-12-18T04:10:48;-1.60;91.30
1405;DHT22;697;51.114;6.542;2022-12-18T04:13:22;-1.60;91.30
1405;DHT22;697;51.114;6.542;2022-12-18T04:15:51;-1.70;91.20
1405;DHT22;697;51.114;6.542;2022-12-18T04:18:17;-1.60;91.20
1405;DHT22;697;51.114;6.542;2022-12-18T04:20:44;-1.60;91.20
1405;DHT22;697;51.114;6.542;2022-12-18T04:23:11;-1.60;91.00
1405;DHT22;697;51.114;6.542;2022-12-18T04:25:38;-1.60;90.90
1405;DHT22;697;51.114;6.542;2022-12-18T04:28:04;-1.60;90.90
1405;DHT22;697;51.114;6.542;2022-12-18T04:30:31;-1.70;90.90
1405;DHT22;697;51.114;6.542;2022-12-18T04:32:59;-1.70;90.90
1405;DHT22;697;51.114;6.542;2022-12-18T04:35:26;-1.70;91.00
1405;DHT22;697;51.114;6.542;2022-12-18T04:37:53;-1.60;91.00
1405;DHT22;697;51.114;6.542;2022-12-18T04:40:19;-1.60;91.00
1405;DHT22;697;51.114;6.542;2022-12-18T04:42:46;-1.60;91.00
1405;DHT22;697;51.114;6.542;2022-12-18T04:45:13;-1.60;90.90
1405;DHT22;697;51.114;6.542;2022-12-18T04:47:40;-1.60;90.90
1405;DHT22;697;51.114;6.542;2022-12-18T04:50:08;-1.60;90.90
1405;DHT22;697;51.114;6.542;2022-12-18T04:52:35;-1.60;90.80
1405;DHT22;697;51.114;6.542;2022-12-18T04:55:02;-1.60;90.60
1405;DHT22;697;51.114;6.542;2022-12-18T04:57:29;-1.70;90.70
1405;DHT22;697;51.114;6.542;2022-12-18T04:59:56;-1.70;90.80
1405;DHT22;697;51.114;6.542;2022-12-18T05:02:22;-1.70;90.80
1405;DHT22;697;51.114;6.542;2022-12-18T05:04:49;-1.70;90.80
1405;DHT22;697;51.114;6.542;2022-12-18T05:07:17;-1.80;90.80
1405;DHT22;697;51.114;6.542;2022-12-18T05:09:44;-1.70;90.90
1405;DHT22;697;51.114;6.542;2022-12-18T05:12:10;-1.70;90.90
1405;DHT22;697;51.114;6.542;2022-12-18T05:14:37;-1.70;90.80
1405;DHT22;697;51.114;6.542;2022-12-18T05:17:04;-1.70;90.70
1405;DHT22;697;51.114;6.542;2022-12-18T05:19:30;-1.70;90.70
1405;DHT22;697;51.114;6.542;2022-12-18T05:21:57;-1.70;90.60
1405;DHT22;697;51.114;6.542;2022-12-18T05:24:25;-1.80;90.60
1405;DHT22;697;51.114;6.542;2022-12-18T05:26:52;-1.80;90.50
1405;DHT22;697;51.114;6.542;2022-12-18T05:29:18;-1.80;90.40
1405;DHT22;697;51.114;6.542;2022-12-18T05:31:45;-1.80;90.30
1405;DHT22;697;51.114;6.542;2022-12-18T05:34:12;-1.90;90.40
1405;DHT22;697;51.114;6.542;2022-12-18T05:36:39;-1.90;90.50
1405;DHT22;697;51.114;6.542;2022-12-18T05:39:06;-2.00;90.60
1405;DHT22;697;51.114;6.542;2022-12-18T05:41:34;-2.00;90.90
1405;DHT22;697;51.114;6.542;2022-12-18T05:44:01;-2.00;90.90
1405;DHT22;697;51.114;6.542;2022-12-18T05:46:28;-2.00;91.00
1405;DHT22;697;51.114;6.542;2022-12-18T05:48:55;-2.00;91.10
1405;DHT22;697;51.114;6.542;2022-12-18T05:51:22;-2.00;91.10
1405;DHT22;697;51.114;6.542;2022-12-18T05:53:49;-2.00;91.10
1405;DHT22;697;51.114;6.542;2022-12-18T05:56:20;-2.10;91.20
1405;DHT22;697;51.114;6.542;2022-12-18T05:58:51;-2.00;91.20
1405;DHT22;697;51.114;6.542;2022-12-18T06:01:21;-2.10;91.10
1405;DHT22;697;51.114;6.542;2022-12-18T06:03:48;-2.10;91.20
1405;DHT22;697;51.114;6.542;2022-12-18T06:06:16;-2.10;91.20
1405;DHT22;697;51.114;6.542;2022-12-18T06:08:43;-2.00;91.60
1405;DHT22;697;51.114;6.542;2022-12-18T06:11:10;-2.00;91.20
1405;DHT22;697;51.114;6.542;2022-12-18T06:13:37;-2.00;91.10
1405;DHT22;697;51.114;6.542;2022-12-18T06:16:06;-2.00;91.10
1405;DHT22;697;51.114;6.542;2022-12-18T06:18:34;-2.00;91.10
1405;DHT22;697;51.114;6.542;2022-12-18T06:21:04;-1.90;91.20
1405;DHT22;697;51.114;6.542;2022-12-18T06:23:31;-1.90;91.20
1405;DHT22;697;51.114;6.542;2022-12-18T06:25:58;-1.90;91.20
1405;DHT22;697;51.114;6.542;2022-12-18T06:28:24;-1.90;91.20
1405;DHT22;697;51.114;6.542;2022-12-18T06:30:51;-1.90;91.20
1405;DHT22;697;51.114;6.542;2022-12-18T06:33:19;-1.90;91.20
1405;DHT22;697;51.114;6.542;2022-12-18T06:35:46;-1.90;91.10
1405;DHT22;697;51.114;6.542;2022-12-18T06:38:13;-1.90;91.10
1405;DHT22;697;51.114;6.542;2022-12-18T06:40:39;-1.90;91.00
1405;DHT22;697;51.114;6.542;2022-12-18T06:43:06;-1.90;91.10
1405;DHT22;697;51.114;6.542;2022-12-18T06:45:33;-1.90;91.10
1405;DHT22;697;51.114;6.542;2022-12-18T06:48:00;-1.90;91.10
1405;DHT22;697;51.114;6.542;2022-12-18T06:50:28;-1.90;90.90
1405;DHT22;697;51.114;6.542;2022-12-18T06:52:55;-1.90;90.80
1405;DHT22;697;51.114;6.542;2022-12-18T06:55:22;-1.90;90.90
1405;DHT22;697;51.114;6.542;2022-12-18T06:57:49;-1.90;91.00
1405;DHT22;697;51.114;6.542;2022-12-18T07:00:16;-2.00;90.90
1405;DHT22;697;51.114;6.542;2022-12-18T07:02:43;-2.00;90.90
1405;DHT22;697;51.114;6.542;2022-12-18T07:05:11;-2.00;91.10
1405;DHT22;697;51.114;6.542;2022-12-18T07:07:39;-2.00;91.20
1405;DHT22;697;51.114;6.542;2022-12-18T07:10:06;-2.10;91.20
1405;DHT22;697;51.114;6.542;2022-12-18T07:12:32;-2.20;91.10
1405;DHT22;697;51.114;6.542;2022-12-18T07:14:59;-2.20;91.30
1405;DHT22;697;51.114;6.542;2022-12-18T07:17:27;-2.20;91.30
1405;DHT22;697;51.114;6.542;2022-12-18T07:19:55;-2.20;91.50
1405;DHT22;697;51.114;6.542;2022-12-18T07:22:21;-2.20;91.30
1405;DHT22;697;51.114;6.542;2022-12-18T07:24:49;-2.30;91.30
1405;DHT22;697;51.114;6.542;2022-12-18T07:27:16;-2.40;91.50
1405;DHT22;697;51.114;6.542;2022-12-18T07:29:43;-2.40;91.80
1405;DHT22;697;51.114;6.542;2022-12-18T07:32:09;-2.40;92.00
1405;DHT22;697;51.114;6.542;2022-12-18T07:34:36;-2.40;92.10
1405;DHT22;697;51.114;6.542;2022-12-18T07:37:03;-2.30;92.10
1405;DHT22;697;51.114;6.542;2022-12-18T07:39:30;-2.30;91.90
1405;DHT22;697;51.114;6.542;2022-12-18T07:41:58;-2.40;92.00
1405;DHT22;697;51.114;6.542;2022-12-18T07:44:43;-2.30;91.90
1405;DHT22;697;51.114;6.542;2022-12-18T07:47:10;-2.40;91.80
1405;DHT22;697;51.114;6.542;2022-12-18T07:49:36;-2.40;92.00
1405;DHT22;697;51.114;6.542;2022-12-18T07:52:03;-2.40;92.00
1405;DHT22;697;51.114;6.542;2022-12-18T07:54:31;-2.30;92.00
1405;DHT22;697;51.114;6.542;2022-12-18T07:57:01;-2.30;92.00
1405;DHT22;697;51.114;6.542;2022-12-18T07:59:28;-2.30;91.90
1405;DHT22;697;51.114;6.542;2022-12-18T08:01:54;-2.30;92.00
1405;DHT22;697;51.114;6.542;2022-12-18T08:04:21;-2.30;92.10
1405;DHT22;697;51.114;6.542;2022-12-18T08:06:48;-2.30;92.20
1405;DHT22;697;51.114;6.542;2022-12-18T08:09:15;-2.20;92.20
1405;DHT22;697;51.114;6.542;2022-12-18T08:11:42;-2.20;92.30
1405;DHT22;697;51.114;6.542;2022-12-18T08:14:10;-2.10;92.30
1405;DHT22;697;51.114;6.542;2022-12-18T08:16:36;-2.00;92.20
1405;DHT22;697;51.114;6.542;2022-12-18T08:19:03;-2.00;92.20
1405;DHT22;697;51.114;6.542;2022-12-18T08:21:31;-1.90;92.10
1405;DHT22;697;51.114;6.542;2022-12-18T08:23:59;-1.90;92.00
1405;DHT22;697;51.114;6.542;2022-12-18T08:26:28;-1.90;92.10
1405;DHT22;697;51.114;6.542;2022-12-18T08:28:56;-1.80;92.30
1405;DHT22;697;51.114;6.542;2022-12-18T08:31:26;-1.80;92.00
1405;DHT22;697;51.114;6.542;2022-12-18T08:33:53;-1.70;92.00
1405;DHT22;697;51.114;6.542;2022-12-18T08:36:21;-1.70;91.90
1405;DHT22;697;51.114;6.542;2022-12-18T08:38:48;-1.60;91.80
1405;DHT22;697;51.114;6.542;2022-12-18T08:41:16;-1.60;91.80
1405;DHT22;697;51.114;6.542;2022-12-18T08:43:43;-1.60;91.70
1405;DHT22;697;51.114;6.542;2022-12-18T08:46:33;-1.50;91.60
1405;DHT22;697;51.114;6.542;2022-12-18T08:49:00;-1.50;91.50
1405;DHT22;697;51.114;6.542;2022-12-18T08:51:27;-1.40;91.40
1405;DHT22;697;51.114;6.542;2022-12-18T08:53:54;-1.40;91.30
1405;DHT22;697;51.114;6.542;2022-12-18T08:56:20;-1.40;91.60
1405;DHT22;697;51.114;6.542;2022-12-18T08:58:51;-1.30;91.20
1405;DHT22;697;51.114;6.542;2022-12-18T09:01:18;-1.30;91.00
1405;DHT22;697;51.114;6.542;2022-12-18T09:03:46;-1.30;91.00
1405;DHT22;697;51.114;6.542;2022-12-18T09:06:14;-1.30;90.80
1405;DHT22;697;51.114;6.542;2022-12-18T09:08:41;-1.30;91.10
1405;DHT22;697;51.114;6.542;2022-12-18T09:11:13;-1.30;91.00
1405;DHT22;697;51.114;6.542;2022-12-18T09:13:40;-1.30;91.30
1405;DHT22;697;51.114;6.542;2022-12-18T09:16:07;-1.20;91.10
1405;DHT22;697;51.114;6.542;2022-12-18T09:18:33;-1.20;91.50
1405;DHT22;697;51.114;6.542;2022-12-18T09:21:07;-1.10;91.20
1405;DHT22;697;51.114;6.542;2022-12-18T09:23:34;-1.00;91.10
1405;DHT22;697;51.114;6.542;2022-12-18T09:26:01;-1.00;91.10
1405;DHT22;697;51.114;6.542;2022-12-18T09:28:30;-0.90;91.20
1405;DHT22;697;51.114;6.542;2022-12-18T09:30:57;-0.90;91.20
1405;DHT22;697;51.114;6.542;2022-12-18T09:33:24;-0.90;90.90
1405;DHT22;697;51.114;6.542;2022-12-18T09:35:51;-0.80;90.80
1405;DHT22;697;51.114;6.542;2022-12-18T09:38:20;-0.70;90.60
1405;DHT22;697;51.114;6.542;2022-12-18T09:40:49;-0.60;90.60
1405;DHT22;697;51.114;6.542;2022-12-18T09:43:22;-0.60;90.70
1405;DHT22;697;51.114;6.542;2022-12-18T09:45:53;-0.50;90.40
1405;DHT22;697;51.114;6.542;2022-12-18T09:48:24;-0.40;90.10
1405;DHT22;697;51.114;6.542;2022-12-18T09:50:55;-0.40;90.10
1405;DHT22;697;51.114;6.542;2022-12-18T09:53:27;-0.30;89.90
1405;DHT22;697;51.114;6.542;2022-12-18T09:55:57;-0.30;89.70
1405;DHT22;697;51.114;6.542;2022-12-18T09:58:28;-0.20;89.70
1405;DHT22;697;51.114;6.542;2022-12-18T10:00:56;-0.10;89.10
1405;DHT22;697;51.114;6.542;2022-12-18T10:03:23;0.00;89.00
1405;DHT22;697;51.114;6.542;2022-12-18T10:05:58;0.10;89.40
1405;DHT22;697;51.114;6.542;2022-12-18T10:08:37;0.20;88.80
1405;DHT22;697;51.114;6.542;2022-12-18T10:11:21;0.20;88.20
1405;DHT22;697;51.114;6.542;2022-12-18T10:13:54;0.30;87.90
1405;DHT22;697;51.114;6.542;2022-12-18T10:16:25;0.30;87.10
1405;DHT22;697;51.114;6.542;2022-12-18T10:19:01;0.30;86.70
1405;DHT22;697;51.114;6.542;2022-12-18T10:21:34;0.40;86.60
1405;DHT22;697;51.114;6.542;2022-12-18T10:24:13;0.50;86.70
1405;DHT22;697;51.114;6.542;2022-12-18T10:26:43;0.50;86.00
1405;DHT22;697;51.114;6.542;2022-12-18T10:29:12;0.50;85.90
1405;DHT22;697;51.114;6.542;2022-12-18T10:31:39;0.60;86.10
1405;DHT22;697;51.114;6.542;2022-12-18T10:34:09;0.80;85.30
1405;DHT22;697;51.114;6.542;2022-12-18T10:36:36;0.80;85.10
1405;DHT22;697;51.114;6.542;2022-12-18T10:39:16;0.80;85.30
1405;DHT22;697;51.114;6.542;2022-12-18T10:41:44;0.90;84.60
1405;DHT22;697;51.114;6.542;2022-12-18T10:44:18;1.00;84.40
1405;DHT22;697;51.114;6.542;2022-12-18T10:46:46;1.00;83.60
1405;DHT22;697;51.114;6.542;2022-12-18T10:49:29;1.00;84.20
1405;DHT22;697;51.114;6.542;2022-12-18T10:52:11;1.10;84.30
1405;DHT22;697;51.114;6.542;2022-12-18T10:54:50;1.20;84.10
1405;DHT22;697;51.114;6.542;2022-12-18T10:57:30;1.30;83.80
1405;DHT22;697;51.114;6.542;2022-12-18T10:59:58;1.50;83.60
1405;DHT22;697;51.114;6.542;2022-12-18T11:02:28;1.50;82.50
1405;DHT22;697;51.114;6.542;2022-12-18T11:05:00;1.60;81.70
1405;DHT22;697;51.114;6.542;2022-12-18T11:07:47;1.60;81.60
1405;DHT22;697;51.114;6.542;2022-12-18T11:10:18;1.60;80.80
1405;DHT22;697;51.114;6.542;2022-12-18T11:12:46;1.60;81.20
1405;DHT22;697;51.114;6.542;2022-12-18T11:15:16;1.60;81.70
1405;DHT22;697;51.114;6.542;2022-12-18T11:17:48;1.70;81.50
1405;DHT22;697;51.114;6.542;2022-12-18T11:20:24;1.80;81.30
1405;DHT22;697;51.114;6.542;2022-12-18T11:22:58;1.80;80.20
1405;DHT22;697;51.114;6.542;2022-12-18T11:25:26;1.80;80.40
1405;DHT22;697;51.114;6.542;2022-12-18T11:27:56;1.90;80.30
1405;DHT22;697;51.114;6.542;2022-12-18T11:30:25;1.90;79.50
1405;DHT22;697;51.114;6.542;2022-12-18T11:32:56;1.90;79.50
1405;DHT22;697;51.114;6.542;2022-12-18T11:35:35;1.90;79.30
1405;DHT22;697;51.114;6.542;2022-12-18T11:38:10;1.90;78.70
1405;DHT22;697;51.114;6.542;2022-12-18T11:40:44;1.90;79.50
1405;DHT22;697;51.114;6.542;2022-12-18T11:43:15;1.90;78.90
1405;DHT22;697;51.114;6.542;2022-12-18T11:45:48;1.90;78.70
1405;DHT22;697;51.114;6.542;2022-12-18T11:48:19;1.90;78.90
1405;DHT22;697;51.114;6.542;2022-12-18T11:50:52;1.90;78.40
1405;DHT22;697;51.114;6.542;2022-12-18T11:53:20;1.90;78.70
1405;DHT22;697;51.114;6.542;2022-12-18T11:55:56;1.90;79.40
1405;DHT22;697;51.114;6.542;2022-12-18T11:58:47;1.90;79.50
1405;DHT22;697;51.114;6.542;2022-12-18T12:01:33;1.90;78.70
1405;DHT22;697;51.114;6.542;2022-12-18T12:04:22;1.80;79.20
1405;DHT22;697;51.114;6.542;2022-12-18T12:07:02;1.90;80.00
1405;DHT22;697;51.114;6.542;2022-12-18T12:09:35;1.90;79.90
1405;DHT22;697;51.114;6.542;2022-12-18T12:12:16;2.00;79.40
1405;DHT22;697;51.114;6.542;2022-12-18T12:14:51;1.90;78.50
1405;DHT22;697;51.114;6.542;2022-12-18T12:17:29;1.80;78.40
1405;DHT22;697;51.114;6.542;2022-12-18T12:20:03;1.80;78.90
1405;DHT22;697;51.114;6.542;2022-12-18T12:22:40;1.90;78.70
1405;DHT22;697;51.114;6.542;2022-12-18T12:25:25;1.90;78.70
1405;DHT22;697;51.114;6.542;2022-12-18T12:28:08;1.90;78.40
1405;DHT22;697;51.114;6.542;2022-12-18T12:30:45;1.80;78.30
1405;DHT22;697;51.114;6.542;2022-12-18T12:33:23;1.80;78.30
1405;DHT22;697;51.114;6.542;2022-12-18T12:35:59;1.70;78.40
1405;DHT22;697;51.114;6.542;2022-12-18T12:38:31;1.70;78.60
1405;DHT22;697;51.114;6.542;2022-12-18T12:41:03;1.70;78.90
1405;DHT22;697;51.114;6.542;2022-12-18T12:43:38;1.70;79.00
1405;DHT22;697;51.114;6.542;2022-12-18T12:46:08;1.70;78.40
1405;DHT22;697;51.114;6.542;2022-12-18T12:48:40;1.70;78.60
1405;DHT22;697;51.114;6.542;2022-12-18T12:51:13;1.70;78.70
1405;DHT22;697;51.114;6.542;2022-12-18T12:53:42;1.80;79.30
1405;DHT22;697;51.114;6.542;2022-12-18T12:56:11;1.80;78.50
1405;DHT22;697;51.114;6.542;2022-12-18T12:58:46;1.80;78.70
1405;DHT22;697;51.114;6.542;2022-12-18T13:01:24;1.80;79.10
1405;DHT22;697;51.114;6.542;2022-12-18T13:04:01;1.90;79.50
1405;DHT22;697;51.114;6.542;2022-12-18T13:06:37;2.00;79.20
1405;DHT22;697;51.114;6.542;2022-12-18T13:09:06;2.00;78.80
1405;DHT22;697;51.114;6.542;2022-12-18T13:11:39;2.00;78.60
1405;DHT22;697;51.114;6.542;2022-12-18T13:14:28;2.00;78.30
1405;DHT22;697;51.114;6.542;2022-12-18T13:17:28;2.00;78.40
1405;DHT22;697;51.114;6.542;2022-12-18T13:20:10;2.00;78.90
1405;DHT22;697;51.114;6.542;2022-12-18T13:22:38;2.10;78.30
1405;DHT22;697;51.114;6.542;2022-12-18T13:25:33;2.00;78.00
1405;DHT22;697;51.114;6.542;2022-12-18T13:28:10;2.00;78.00
1405;DHT22;697;51.114;6.542;2022-12-18T13:30:48;1.90;78.00
1405;DHT22;697;51.114;6.542;2022-12-18T13:33:48;2.00;78.20
1405;DHT22;697;51.114;6.542;2022-12-18T13:36:25;2.00;79.10
1405;DHT22;697;51.114;6.542;2022-12-18T13:39:10;2.00;78.90
1405;DHT22;697;51.114;6.542;2022-12-18T13:41:45;2.10;77.70
1405;DHT22;697;51.114;6.542;2022-12-18T13:44:17;2.10;78.10
1405;DHT22;697;51.114;6.542;2022-12-18T13:46:50;2.10;78.90
1405;DHT22;697;51.114;6.542;2022-12-18T13:49:22;2.10;79.00
1405;DHT22;697;51.114;6.542;2022-12-18T13:51:51;2.20;79.10
1405;DHT22;697;51.114;6.542;2022-12-18T13:54:20;2.20;79.20
1405;DHT22;697;51.114;6.542;2022-12-18T13:56:49;2.10;78.70
1405;DHT22;697;51.114;6.542;2022-12-18T13:59:18;2.10;79.00
1405;DHT22;697;51.114;6.542;2022-12-18T14:01:50;2.20;79.00
1405;DHT22;697;51.114;6.542;2022-12-18T14:04:20;2.10;79.10
1405;DHT22;697;51.114;6.542;2022-12-18T14:06:49;2.10;79.00
1405;DHT22;697;51.114;6.542;2022-12-18T14:09:19;2.10;79.00
1405;DHT22;697;51.114;6.542;2022-12-18T14:11:49;2.10;78.30
1405;DHT22;697;51.114;6.542;2022-12-18T14:14:16;2.00;77.80
1405;DHT22;697;51.114;6.542;2022-12-18T14:16:44;2.00;78.40
1405;DHT22;697;51.114;6.542;2022-12-18T14:19:17;1.90;78.80
1405;DHT22;697;51.114;6.542;2022-12-18T14:21:47;1.80;79.20
1405;DHT22;697;51.114;6.542;2022-12-18T14:24:16;1.80;79.00
1405;DHT22;697;51.114;6.542;2022-12-18T14:26:43;1.80;79.20
1405;DHT22;697;51.114;6.542;2022-12-18T14:29:22;1.70;79.30
1405;DHT22;697;51.114;6.542;2022-12-18T14:32:10;1.70;80.00
1405;DHT22;697;51.114;6.542;2022-12-18T14:34:40;1.60;80.40
1405;DHT22;697;51.114;6.542;2022-12-18T14:37:10;1.60;80.70
1405;DHT22;697;51.114;6.542;2022-12-18T14:39:37;1.60;80.70
1405;DHT22;697;51.114;6.542;2022-12-18T14:42:04;1.70;81.60
1405;DHT22;697;51.114;6.542;2022-12-18T14:44:32;1.70;81.20
1405;DHT22;697;51.114;6.542;2022-12-18T14:46:59;1.60;81.00
1405;DHT22;697;51.114;6.542;2022-12-18T14:49:30;1.60;80.90
1405;DHT22;697;51.114;6.542;2022-12-18T14:51:59;1.60;81.30
1405;DHT22;697;51.114;6.542;2022-12-18T14:54:27;1.60;81.20
1405;DHT22;697;51.114;6.542;2022-12-18T14:56:59;1.50;80.90
1405;DHT22;697;51.114;6.542;2022-12-18T14:59:27;1.60;81.50
1405;DHT22;697;51.114;6.542;2022-12-18T15:02:01;1.60;81.80
1405;DHT22;697;51.114;6.542;2022-12-18T15:04:31;1.60;81.50
1405;DHT22;697;51.114;6.542;2022-12-18T15:07:05;1.50;81.70
1405;DHT22;697;51.114;6.542;2022-12-18T15:09:34;1.60;81.40
1405;DHT22;697;51.114;6.542;2022-12-18T15:12:01;1.50;81.50
1405;DHT22;697;51.114;6.542;2022-12-18T15:14:39;1.50;81.70
1405;DHT22;697;51.114;6.542;2022-12-18T15:17:15;1.50;81.30
1405;DHT22;697;51.114;6.542;2022-12-18T15:19:44;1.50;81.20
1405;DHT22;697;51.114;6.542;2022-12-18T15:22:21;1.50;81.50
1405;DHT22;697;51.114;6.542;2022-12-18T15:24:50;1.50;81.80
1405;DHT22;697;51.114;6.542;2022-12-18T15:27:29;1.50;81.70
1405;DHT22;697;51.114;6.542;2022-12-18T15:30:03;1.50;82.00
1405;DHT22;697;51.114;6.542;2022-12-18T15:32:42;1.50;82.20
1405;DHT22;697;51.114;6.542;2022-12-18T15:35:14;1.50;81.80
1405;DHT22;697;51.114;6.542;2022-12-18T15:37:43;1.50;81.40
1405;DHT22;697;51.114;6.542;2022-12-18T15:40:12;1.40;81.70
1405;DHT22;697;51.114;6.542;2022-12-18T15:42:41;1.30;81.80
1405;DHT22;697;51.114;6.542;2022-12-18T15:45:25;1.30;80.80
1405;DHT22;697;51.114;6.542;2022-12-18T15:47:52;1.20;81.50
1405;DHT22;697;51.114;6.542;2022-12-18T15:50:19;1.20;82.20
1405;DHT22;697;51.114;6.542;2022-12-18T15:52:51;1.20;82.00
1405;DHT22;697;51.114;6.542;2022-12-18T15:55:21;1.20;82.40
1405;DHT22;697;51.114;6.542;2022-12-18T15:58:05;1.20;82.30
1405;DHT22;697;51.114;6.542;2022-12-18T16:00:33;1.20;82.70
1405;DHT22;697;51.114;6.542;2022-12-18T16:03:00;1.20;82.80
1405;DHT22;697;51.114;6.542;2022-12-18T16:05:28;1.30;83.00
1405;DHT22;697;51.114;6.542;2022-12-18T16:07:56;1.20;83.10
1405;DHT22;697;51.114;6.542;2022-12-18T16:10:24;1.30;83.30
1405;DHT22;697;51.114;6.542;2022-12-18T16:12:51;1.30;83.30
1405;DHT22;697;51.114;6.542;2022-12-18T16:15:19;1.30;82.60
1405;DHT22;697;51.114;6.542;2022-12-18T16:17:46;1.30;82.40
1405;DHT22;697;51.114;6.542;2022-12-18T16:20:14;1.30;82.00
1405;DHT22;697;51.114;6.542;2022-12-18T16:22:41;1.30;82.10
1405;DHT22;697;51.114;6.542;2022-12-18T16:25:17;1.30;82.40
1405;DHT22;697;51.114;6.542;2022-12-18T16:27:43;1.20;82.30
1405;DHT22;697;51.114;6.542;2022-12-18T16:30:13;1.20;82.10
1405;DHT22;697;51.114;6.542;2022-12-18T16:32:40;1.20;82.60
1405;DHT22;697;51.114;6.542;2022-12-18T16:35:09;1.10;82.60
1405;DHT22;697;51.114;6.542;2022-12-18T16:37:36;1.10;82.50
1405;DHT22;697;51.114;6.542;2022-12-18T16:40:04;1.10;82.50
1405;DHT22;697;51.114;6.542;2022-12-18T16:42:35;1.10;83.20
1405;DHT22;697;51.114;6.542;2022-12-18T16:45:03;1.10;83.60
1405;DHT22;697;51.114;6.542;2022-12-18T16:47:30;1.10;83.80